PST,Max TemperatureF,Mean TemperatureF,Min TemperatureF,Max Dew PointF,MeanDew PointF,Min DewpointF,Max Humidity, Mean Humidity, Min Humidity, Max Sea Level PressureIn, Mean Sea Level PressureIn, Min Sea Level PressureIn, Max VisibilityMiles, Mean VisibilityMiles, Min VisibilityMiles, Max Wind SpeedMPH, Mean Wind SpeedMPH, Max Gust SpeedMPH,PrecipitationIn, CloudCover, Events, WindDirDegrees
2013-11-1,57,54,50,55,52,50,100,98,88,30.28,30.14,29.83,10,8,2,8,2,,0.03,7,,93
2013-11-2,55,48,42,54,48,43,100,98,88,29.88,29.68,29.40,10,9,1,20,9,34,0.56,7,,169
2013-11-3,50,42,35,46,42,36,100,97,82,30.12,30.03,29.89,10,9,2,9,2,,0.09,4,,354
2013-11-4,46,40,33,43,38,34,100,91,76,30.22,30.16,30.08,10,10,5,12,5,,0.04,4,,64
2013-11-5,46,44,41,46,43,41,100,100,100,30.28,30.12,30.04,10,8,1,15,8,20,0.07,8,,63
2013-11-6,51,46,41,48,45,41,100,94,82,30.34,30.25,30.02,10,9,0,13,4,16,0.01,4,,66
2013-11-7,55,52,48,54,50,48,100,97,88,30.00,29.80,29.68,10,9,3,23,9,34,0.28,8,,156
2013-11-8,53,48,42,48,46,43,100,90,72,30.17,30.11,29.98,10,10,2,14,6,20,0.01,5,,200
2013-11-9,48,44,41,46,44,41,100,96,82,30.17,30.14,30.10,10,10,5,12,5,,0.00,2,,38
2013-11-10,48,45,42,48,46,43,100,100,100,30.18,30.16,30.13,10,10,6,9,5,,0.00,6,,342
2013-11-11,57,48,39,52,46,39,100,90,77,30.18,30.11,30.01,10,10,2,12,3,17,0.00,1,,13
2013-11-12,57,52,48,55,52,43,100,91,59,30.35,30.20,30.01,10,10,3,13,7,21,0.01,6,,160
2013-11-13,55,52,48,54,51,48,100,98,88,30.44,30.40,30.33,10,9,5,9,4,,0.01,7,,197
2013-11-14,51,46,42,50,47,43,100,99,87,30.33,30.17,30.08,10,8,1,12,2,16,0.23,6,,346
2013-11-15,46,42,39,46,44,39,100,100,87,30.07,29.73,29.32,10,7,2,18,5,29,0.86,7,,172
2013-11-16,48,45,42,45,41,39,100,85,76,29.75,29.56,29.35,10,10,3,13,5,17,0.04,7,,252
2013-11-17,46,44,42,46,43,39,100,98,81,29.90,29.83,29.76,10,10,5,12,5,16,0.01,7,,111
2013-11-18,51,46,42,52,48,43,100,100,100,29.90,29.74,29.54,10,7,0,12,3,21,0.44,8,,120
2013-11-19,51,44,35,52,36,25,100,79,46,30.07,29.83,29.55,10,10,3,16,8,25,0.23,6,,331
2013-11-20,41,36,30,32,30,27,100,86,65,30.54,30.34,30.08,10,10,1,12,5,,0.00,0,,12
2013-11-21,39,34,28,32,29,27,100,89,65,30.70,30.64,30.54,10,10,7,10,5,,0.00,0,,10
2013-11-22,42,35,28,36,31,28,100,91,66,30.69,30.60,30.48,10,10,8,8,4,,0.00,0,,325
2013-11-23,44,37,30,39,35,30,100,94,76,30.48,30.35,30.23,10,10,8,9,3,,0.00,0,,327
2013-11-24,46,38,30,43,37,30,100,97,76,30.27,30.22,30.20,10,9,1,9,2,,0.00,0,,321
2013-11-25,50,41,32,41,36,32,100,94,66,30.33,30.30,30.27,10,7,0,6,1,,0.00,1,,235
2013-11-26,46,38,30,45,37,30,100,94,76,30.28,30.19,30.12,10,7,0,10,1,,0.00,5,,14
2013-11-27,51,43,35,45,40,36,100,86,62,30.11,30.04,29.99,10,10,7,9,5,,0.00,1,,344
2013-11-28,51,42,32,45,41,32,100,95,67,30.19,30.11,30.05,10,8,0,5,1,,0.00,4,,120
2013-11-29,50,46,42,48,45,43,100,99,87,30.33,30.26,30.19,10,9,4,8,3,,0.04,8,,179
2013-11-30,50,47,44,50,47,45,100,100,100,30.33,30.26,30.08,10,8,2,12,5,,0.30,8,,116